createdAt,value
2023-03-27T00:00:19.181Z,29.805
2023-03-27T00:05:19.210Z,29.805
2023-03-27T00:10:19.156Z,29.805
2023-03-27T00:15:19.202Z,29.815
2023-03-27T00:20:19.203Z,29.815
2023-03-27T00:25:19.129Z,29.815
2023-03-27T00:30:19.369Z,29.823
2023-03-27T00:35:19.138Z,29.823
2023-03-27T00:40:16.139Z,29.823
2023-03-27T00:45:16.143Z,29.836
2023-03-27T00:50:19.205Z,29.836
2023-03-27T00:55:19.335Z,29.836
2023-03-27T01:00:19.296Z,29.839
2023-03-27T01:05:19.279Z,29.839
2023-03-27T01:10:19.206Z,29.839
2023-03-27T01:15:19.249Z,29.848
2023-03-27T01:20:19.277Z,29.848
2023-03-27T01:25:19.308Z,29.848
2023-03-27T01:30:19.325Z,29.853
2023-03-27T01:35:16.123Z,29.853
2023-03-27T01:40:16.276Z,29.853
2023-03-27T01:45:19.343Z,29.862
2023-03-27T01:50:19.333Z,29.862
2023-03-27T01:55:19.381Z,29.862
2023-03-27T02:00:19.705Z,29.866
2023-03-27T02:05:19.594Z,29.866
2023-03-27T02:10:19.308Z,29.866
2023-03-27T02:15:23.126Z,29.868
2023-03-27T02:20:19.369Z,29.868
2023-03-27T02:25:16.312Z,29.868
2023-03-27T02:30:16.304Z,29.868
2023-03-27T02:35:19.442Z,29.868
2023-03-27T02:40:19.347Z,29.868
2023-03-27T02:45:19.323Z,29.870
2023-03-27T02:50:19.435Z,29.870
2023-03-27T02:55:19.554Z,29.870
2023-03-27T03:00:19.533Z,29.869
2023-03-27T03:05:19.476Z,29.869
2023-03-27T03:10:19.553Z,29.869
2023-03-27T03:15:19.526Z,29.872
2023-03-27T03:20:16.420Z,29.872
2023-03-27T03:25:16.357Z,29.872
2023-03-27T03:30:19.533Z,29.877
2023-03-27T03:35:19.581Z,29.877
2023-03-27T03:40:19.524Z,29.877
2023-03-27T03:45:19.653Z,29.883
2023-03-27T03:50:19.563Z,29.883
2023-03-27T03:55:19.577Z,29.883
2023-03-27T04:00:15.919Z,29.885
2023-03-27T04:05:15.829Z,29.885
2023-03-27T04:10:19.012Z,29.885
2023-03-27T04:15:18.851Z,29.893
2023-03-27T04:20:18.912Z,29.893
2023-03-27T04:25:18.857Z,29.893
2023-03-27T04:30:16.018Z,29.891
2023-03-27T04:35:16.001Z,29.891
2023-03-27T04:40:18.910Z,29.891
2023-03-27T04:45:18.945Z,29.893
2023-03-27T04:50:18.962Z,29.893
2023-03-27T04:55:18.939Z,29.893
2023-03-27T05:00:19.069Z,29.893
2023-03-27T05:05:16.029Z,29.893
2023-03-27T05:10:22.108Z,29.893
2023-03-27T05:15:19.046Z,29.896
2023-03-27T05:20:15.867Z,29.896
2023-03-27T05:25:15.898Z,29.896
2023-03-27T05:30:19.019Z,29.898
2023-03-27T05:35:19.111Z,29.898
2023-03-27T05:40:19.039Z,29.898
2023-03-27T05:45:19.028Z,29.900
2023-03-27T05:50:19.001Z,29.900
2023-03-27T05:55:19.066Z,29.900
2023-03-27T06:00:18.981Z,29.902
2023-03-27T06:05:19.078Z,29.902
2023-03-27T06:10:19.034Z,29.902
2023-03-27T06:15:16.019Z,29.901
2023-03-27T06:20:16.010Z,29.901
2023-03-27T06:25:19.184Z,29.901
2023-03-27T06:30:19.141Z,29.903
2023-03-27T06:35:19.094Z,29.903
2023-03-27T06:40:19.269Z,29.903
2023-03-27T06:45:19.198Z,29.905
2023-03-27T06:50:19.165Z,29.905
2023-03-27T06:55:19.216Z,29.905
2023-03-27T07:00:19.271Z,29.908
2023-03-27T07:05:19.133Z,29.908
2023-03-27T07:10:15.973Z,29.908
2023-03-27T07:15:16.029Z,29.914
2023-03-27T07:20:19.104Z,29.914
2023-03-27T07:25:19.293Z,29.914
2023-03-27T07:30:19.227Z,29.918
2023-03-27T07:35:19.250Z,29.918
2023-03-27T07:40:21.770Z,29.918
2023-03-27T07:45:19.585Z,29.918
2023-03-27T07:50:19.247Z,29.918
2023-03-27T07:55:19.319Z,29.918
2023-03-27T08:00:19.271Z,29.925
2023-03-27T08:05:16.182Z,29.925
2023-03-27T08:10:16.265Z,29.925
2023-03-27T08:15:19.347Z,29.926
2023-03-27T08:20:19.330Z,29.926
2023-03-27T08:25:19.416Z,29.926
2023-03-27T08:30:19.414Z,29.932
2023-03-27T08:35:19.425Z,29.932
2023-03-27T08:40:19.433Z,29.932
2023-03-27T08:45:19.356Z,29.934
2023-03-27T08:50:19.570Z,29.934
2023-03-27T08:55:16.347Z,29.934
2023-03-27T09:00:16.322Z,29.942
2023-03-27T09:05:19.467Z,29.942
2023-03-27T09:10:19.556Z,29.942
2023-03-27T09:15:19.477Z,29.951
2023-03-27T09:20:19.518Z,29.951
2023-03-27T09:25:19.487Z,29.951
2023-03-27T09:30:19.596Z,29.978
2023-03-27T09:35:19.648Z,29.978
2023-03-27T09:40:19.524Z,29.978
2023-03-27T09:45:19.475Z,29.981
2023-03-27T09:50:16.495Z,29.981
2023-03-27T09:55:16.479Z,29.981
2023-03-27T10:00:19.857Z,29.980
2023-03-27T10:05:19.516Z,29.980
2023-03-27T10:10:19.571Z,29.980
2023-03-27T10:15:19.678Z,29.981
2023-03-27T10:20:19.623Z,29.981
2023-03-27T10:25:19.700Z,29.981
2023-03-27T10:30:19.598Z,29.991
2023-03-27T10:35:19.558Z,29.991
2023-03-27T10:40:19.718Z,29.991
2023-03-27T10:45:16.546Z,29.991
2023-03-27T10:50:19.656Z,29.991
2023-03-27T10:55:19.697Z,29.991
2023-03-27T11:00:19.713Z,29.990
2023-03-27T11:05:19.778Z,29.990
2023-03-27T11:10:19.758Z,29.990
2023-03-27T11:15:19.707Z,29.988
2023-03-27T11:20:19.753Z,29.988
2023-03-27T11:25:19.851Z,29.988
2023-03-27T11:30:19.764Z,29.989
2023-03-27T11:35:16.653Z,29.989
2023-03-27T11:40:16.615Z,29.989
2023-03-27T11:45:19.892Z,29.992
2023-03-27T11:50:19.825Z,29.992
2023-03-27T11:55:19.794Z,29.992
2023-03-27T12:00:19.908Z,30.009
2023-03-27T12:05:19.845Z,30.009
2023-03-27T12:10:23.510Z,30.009
2023-03-27T12:15:20.048Z,30.011
2023-03-27T12:20:19.922Z,30.011
2023-03-27T12:25:19.857Z,30.011
2023-03-27T12:30:16.725Z,30.010
2023-03-27T12:35:18.141Z,30.010
2023-03-27T12:40:19.958Z,30.010
2023-03-27T12:45:20.046Z,30.003
2023-03-27T12:50:20.037Z,30.003
2023-03-27T12:55:20.018Z,30.003
2023-03-27T13:00:20.001Z,29.997
2023-03-27T13:05:27.452Z,29.997
2023-03-27T13:10:19.948Z,29.997
2023-03-27T13:15:19.977Z,29.992
2023-03-27T13:20:19.939Z,29.992
2023-03-27T13:25:17.027Z,29.992
2023-03-27T13:30:20.616Z,29.990
2023-03-27T13:35:20.180Z,29.990
2023-03-27T13:40:20.045Z,29.990
2023-03-27T13:45:20.115Z,29.982
2023-03-27T13:50:20.068Z,29.982
2023-03-27T13:55:20.189Z,29.982
2023-03-27T14:00:20.083Z,29.978
2023-03-27T14:05:20.086Z,29.978
2023-03-27T14:10:20.114Z,29.978
2023-03-27T14:15:16.966Z,29.976
2023-03-27T14:20:17.046Z,29.976
2023-03-27T14:25:20.311Z,29.976
2023-03-27T14:30:20.325Z,29.974
2023-03-27T14:35:20.220Z,29.974
2023-03-27T14:40:20.262Z,29.974
2023-03-27T14:45:20.478Z,29.979
2023-03-27T14:50:20.192Z,29.979
2023-03-27T14:55:20.216Z,29.979
2023-03-27T15:00:20.227Z,29.976
2023-03-27T15:05:20.381Z,29.976
2023-03-27T15:10:17.219Z,29.976
2023-03-27T15:15:20.296Z,29.975
2023-03-27T15:20:20.240Z,29.975
2023-03-27T15:25:20.293Z,29.975
2023-03-27T15:30:20.206Z,29.975
2023-03-27T15:35:20.388Z,29.975
2023-03-27T15:40:20.237Z,29.975
2023-03-27T15:45:20.397Z,29.962
2023-03-27T15:50:20.259Z,29.962
2023-03-27T15:55:20.358Z,29.962
2023-03-27T16:00:17.249Z,29.953
2023-03-27T16:05:17.190Z,29.953
2023-03-27T16:10:20.450Z,29.953
2023-03-27T16:15:20.397Z,29.945
2023-03-27T16:20:20.354Z,29.945
2023-03-27T16:25:20.406Z,29.945
2023-03-27T16:30:20.340Z,29.941
2023-03-27T16:35:20.380Z,29.941
2023-03-27T16:40:20.421Z,29.941
2023-03-27T16:45:20.583Z,29.933
2023-03-27T16:50:20.501Z,29.933
2023-03-27T16:55:17.292Z,29.933
2023-03-27T17:00:17.376Z,29.930
2023-03-27T17:05:20.666Z,29.930
2023-03-27T17:10:20.486Z,29.930
2023-03-27T17:15:20.448Z,29.919
2023-03-27T17:20:20.543Z,29.919
2023-03-27T17:25:20.410Z,29.919
2023-03-27T17:30:30.591Z,29.916
2023-03-27T17:35:20.423Z,29.916
2023-03-27T17:40:20.724Z,29.916
2023-03-27T17:45:17.490Z,29.913
2023-03-27T17:50:17.271Z,29.913
2023-03-27T17:55:20.596Z,29.913
2023-03-27T18:00:20.524Z,29.913
2023-03-27T18:05:20.489Z,29.913
2023-03-27T18:10:20.541Z,29.913
2023-03-27T18:15:20.503Z,29.903
2023-03-27T18:20:20.565Z,29.903
2023-03-27T18:25:20.579Z,29.903
2023-03-27T18:30:20.701Z,29.896
2023-03-27T18:35:20.568Z,29.896
2023-03-27T18:40:17.474Z,29.896
2023-03-27T18:45:17.397Z,29.898
2023-03-27T18:50:20.553Z,29.898
2023-03-27T18:55:20.471Z,29.898
2023-03-27T19:00:20.588Z,29.891
2023-03-27T19:05:20.653Z,29.891
2023-03-27T19:10:18.622Z,29.891
2023-03-27T19:15:20.193Z,29.886
2023-03-27T19:20:15.403Z,29.886
2023-03-27T19:25:15.753Z,29.886
2023-03-27T19:30:18.674Z,29.892
2023-03-27T19:35:18.605Z,29.892
2023-03-27T19:40:18.832Z,29.892
2023-03-27T19:45:18.654Z,29.885
2023-03-27T19:50:18.616Z,29.885
2023-03-27T19:55:18.736Z,29.885
2023-03-27T20:00:18.695Z,29.883
2023-03-27T20:05:18.623Z,29.883
2023-03-27T20:10:15.578Z,29.883
2023-03-27T20:15:15.645Z,29.887
2023-03-27T20:20:18.937Z,29.887
2023-03-27T20:25:15.886Z,29.887
2023-03-27T20:30:18.768Z,29.887
2023-03-27T20:35:23.643Z,29.887
2023-03-27T20:40:18.859Z,29.887
2023-03-27T20:45:18.802Z,29.891
2023-03-27T20:50:18.673Z,29.891
2023-03-27T20:55:30.430Z,29.891
2023-03-27T21:00:18.736Z,29.896
2023-03-27T21:05:15.648Z,29.896
2023-03-27T21:10:15.601Z,29.896
2023-03-27T21:15:18.766Z,29.897
2023-03-27T21:20:18.845Z,29.897
2023-03-27T21:25:18.930Z,29.897
2023-03-27T21:30:16.547Z,29.886
2023-03-27T21:35:18.919Z,29.886
2023-03-27T21:40:18.797Z,29.886
2023-03-27T21:45:18.783Z,29.888
2023-03-27T21:50:18.782Z,29.888
2023-03-27T21:55:18.901Z,29.888
2023-03-27T22:00:15.839Z,29.885
2023-03-27T22:05:15.928Z,29.885
2023-03-27T22:10:18.896Z,29.885
2023-03-27T22:15:18.875Z,29.878
2023-03-27T22:20:19.017Z,29.878
2023-03-27T22:25:18.888Z,29.878
2023-03-27T22:30:18.925Z,29.887
2023-03-27T22:35:18.958Z,29.887
2023-03-27T22:40:18.908Z,29.887
2023-03-27T22:45:18.836Z,29.900
2023-03-27T22:50:15.808Z,29.900
2023-03-27T22:55:15.770Z,29.900
2023-03-27T23:00:18.948Z,29.897
2023-03-27T23:05:19.044Z,29.897
2023-03-27T23:10:18.964Z,29.897
2023-03-27T23:15:29.998Z,29.887
2023-03-27T23:20:18.967Z,29.887
2023-03-27T23:25:18.913Z,29.887
2023-03-27T23:30:18.944Z,29.899
2023-03-27T23:35:18.866Z,29.899
2023-03-27T23:40:19.234Z,29.899
2023-03-27T23:45:15.857Z,29.911
2023-03-27T23:50:15.882Z,29.911
2023-03-27T23:55:19.121Z,29.911
